sensor_id;sensor_type;location;lat;lon;timestamp;temperature;humidity
33655;DHT22;19997;51.274;22.506;2023-02-15T00:00:31;5.90;99.90
33655;DHT22;19997;51.274;22.506;2023-02-15T00:02:58;5.90;99.90
33655;DHT22;19997;51.274;22.506;2023-02-15T00:05:25;5.90;99.90
33655;DHT22;19997;51.274;22.506;2023-02-15T00:07:52;5.90;99.90
33655;DHT22;19997;51.274;22.506;2023-02-15T00:10:19;5.90;99.90
33655;DHT22;19997;51.274;22.506;2023-02-15T00:12:46;5.90;99.90
33655;DHT22;19997;51.274;22.506;2023-02-15T00:15:13;5.90;99.90
33655;DHT22;19997;51.274;22.506;2023-02-15T00:17:41;5.90;99.90
33655;DHT22;19997;51.274;22.506;2023-02-15T00:20:09;5.90;99.90
33655;DHT22;19997;51.274;22.506;2023-02-15T00:22:36;5.90;99.90
33655;DHT22;19997;51.274;22.506;2023-02-15T00:25:04;5.90;99.90
33655;DHT22;19997;51.274;22.506;2023-02-15T00:27:33;5.90;99.90
33655;DHT22;19997;51.274;22.506;2023-02-15T00:30:02;5.90;99.90
33655;DHT22;19997;51.274;22.506;2023-02-15T00:32:29;5.80;99.90
33655;DHT22;19997;51.274;22.506;2023-02-15T00:34:58;5.90;99.90
33655;DHT22;19997;51.274;22.506;2023-02-15T00:41:02;5.90;99.90
33655;DHT22;19997;51.274;22.506;2023-02-15T00:43:30;5.90;99.90
33655;DHT22;19997;51.274;22.506;2023-02-15T00:45:57;5.90;99.90
33655;DHT22;19997;51.274;22.506;2023-02-15T00:48:25;5.80;99.90
33655;DHT22;19997;51.274;22.506;2023-02-15T00:50:55;5.80;99.90
33655;DHT22;19997;51.274;22.506;2023-02-15T00:53:22;5.80;99.90
33655;DHT22;19997;51.274;22.506;2023-02-15T00:55:50;5.80;99.90
33655;DHT22;19997;51.274;22.506;2023-02-15T00:58:17;5.70;99.90
33655;DHT22;19997;51.274;22.506;2023-02-15T01:00:46;5.70;99.90
33655;DHT22;19997;51.274;22.506;2023-02-15T01:03:15;5.70;99.90
33655;DHT22;19997;51.274;22.506;2023-02-15T01:05:42;5.70;99.90
33655;DHT22;19997;51.274;22.506;2023-02-15T01:08:11;5.70;99.90
33655;DHT22;19997;51.274;22.506;2023-02-15T01:10:38;5.70;99.90
33655;DHT22;19997;51.274;22.506;2023-02-15T01:13:05;5.80;99.90
33655;DHT22;19997;51.274;22.506;2023-02-15T01:15:34;5.80;99.90
33655;DHT22;19997;51.274;22.506;2023-02-15T01:18:01;5.80;99.90
33655;DHT22;19997;51.274;22.506;2023-02-15T01:20:29;5.90;99.90
33655;DHT22;19997;51.274;22.506;2023-02-15T01:22:57;5.80;99.90
33655;DHT22;19997;51.274;22.506;2023-02-15T01:25:25;5.80;99.90
33655;DHT22;19997;51.274;22.506;2023-02-15T01:27:54;5.80;99.90
33655;DHT22;19997;51.274;22.506;2023-02-15T01:30:21;5.90;99.90
33655;DHT22;19997;51.274;22.506;2023-02-15T01:32:48;5.90;99.90
33655;DHT22;19997;51.274;22.506;2023-02-15T01:35:16;5.90;99.90
33655;DHT22;19997;51.274;22.506;2023-02-15T01:37:43;5.90;99.90
33655;DHT22;19997;51.274;22.506;2023-02-15T01:40:14;5.90;99.90
33655;DHT22;19997;51.274;22.506;2023-02-15T01:42:45;5.90;99.90
33655;DHT22;19997;51.274;22.506;2023-02-15T01:45:20;5.90;99.90
33655;DHT22;19997;51.274;22.506;2023-02-15T01:47:51;5.90;99.90
33655;DHT22;19997;51.274;22.506;2023-02-15T01:50:23;5.90;99.90
33655;DHT22;19997;51.274;22.506;2023-02-15T01:52:55;5.90;99.90
33655;DHT22;19997;51.274;22.506;2023-02-15T01:55:28;5.90;99.90
33655;DHT22;19997;51.274;22.506;2023-02-15T01:57:57;5.90;99.90
33655;DHT22;19997;51.274;22.506;2023-02-15T02:00:25;5.90;99.90
33655;DHT22;19997;51.274;22.506;2023-02-15T02:02:54;5.90;99.90
33655;DHT22;19997;51.274;22.506;2023-02-15T02:05:25;6.00;99.90
33655;DHT22;19997;51.274;22.506;2023-02-15T02:07:54;6.00;99.90
33655;DHT22;19997;51.274;22.506;2023-02-15T02:10:24;6.00;99.90
33655;DHT22;19997;51.274;22.506;2023-02-15T02:12:54;6.00;99.90
33655;DHT22;19997;51.274;22.506;2023-02-15T02:15:29;6.00;99.90
33655;DHT22;19997;51.274;22.506;2023-02-15T02:18:09;6.00;99.90
33655;DHT22;19997;51.274;22.506;2023-02-15T02:20:59;6.00;99.90
33655;DHT22;19997;51.274;22.506;2023-02-15T02:23:37;5.90;99.90
33655;DHT22;19997;51.274;22.506;2023-02-15T02:26:38;5.90;99.90
33655;DHT22;19997;51.274;22.506;2023-02-15T02:29:38;6.00;99.90
33655;DHT22;19997;51.274;22.506;2023-02-15T02:32:33;5.90;99.90
33655;DHT22;19997;51.274;22.506;2023-02-15T02:35:11;5.90;99.90
33655;DHT22;19997;51.274;22.506;2023-02-15T02:37:48;5.90;99.90
33655;DHT22;19997;51.274;22.506;2023-02-15T02:40:22;6.00;99.90
33655;DHT22;19997;51.274;22.506;2023-02-15T02:42:58;6.00;99.90
33655;DHT22;19997;51.274;22.506;2023-02-15T02:45:34;6.00;99.90
33655;DHT22;19997;51.274;22.506;2023-02-15T02:48:06;5.90;99.90
33655;DHT22;19997;51.274;22.506;2023-02-15T02:50:39;5.90;99.90
33655;DHT22;19997;51.274;22.506;2023-02-15T02:53:07;5.80;99.90
33655;DHT22;19997;51.274;22.506;2023-02-15T02:55:39;5.80;99.90
33655;DHT22;19997;51.274;22.506;2023-02-15T02:58:10;5.80;99.90
33655;DHT22;19997;51.274;22.506;2023-02-15T03:00:44;5.80;99.90
33655;DHT22;19997;51.274;22.506;2023-02-15T03:03:18;5.80;99.90
33655;DHT22;19997;51.274;22.506;2023-02-15T03:05:51;5.70;99.90
33655;DHT22;19997;51.274;22.506;2023-02-15T03:08:21;5.70;99.90
33655;DHT22;19997;51.274;22.506;2023-02-15T03:10:56;5.70;99.90
33655;DHT22;19997;51.274;22.506;2023-02-15T03:13:25;5.70;99.90
33655;DHT22;19997;51.274;22.506;2023-02-15T03:15:53;5.70;99.90
33655;DHT22;19997;51.274;22.506;2023-02-15T03:18:41;5.70;99.90
33655;DHT22;19997;51.274;22.506;2023-02-15T03:21:13;5.60;99.90
33655;DHT22;19997;51.274;22.506;2023-02-15T03:23:50;5.70;99.90
33655;DHT22;19997;51.274;22.506;2023-02-15T03:26:20;5.70;99.90
33655;DHT22;19997;51.274;22.506;2023-02-15T03:28:50;5.70;99.90
33655;DHT22;19997;51.274;22.506;2023-02-15T03:31:20;5.70;99.90
33655;DHT22;19997;51.274;22.506;2023-02-15T03:33:52;5.70;99.90
33655;DHT22;19997;51.274;22.506;2023-02-15T03:36:24;5.70;99.90
33655;DHT22;19997;51.274;22.506;2023-02-15T03:38:57;5.80;99.90
33655;DHT22;19997;51.274;22.506;2023-02-15T03:41:29;5.80;99.90
33655;DHT22;19997;51.274;22.506;2023-02-15T03:44:04;5.80;99.90
33655;DHT22;19997;51.274;22.506;2023-02-15T03:46:35;5.80;99.90
33655;DHT22;19997;51.274;22.506;2023-02-15T03:49:08;5.80;99.90
33655;DHT22;19997;51.274;22.506;2023-02-15T03:51:40;5.80;99.90
33655;DHT22;19997;51.274;22.506;2023-02-15T03:54:10;5.80;99.90
33655;DHT22;19997;51.274;22.506;2023-02-15T03:56:40;5.80;99.90
33655;DHT22;19997;51.274;22.506;2023-02-15T03:59:28;5.80;99.90
33655;DHT22;19997;51.274;22.506;2023-02-15T04:02:17;5.70;99.90
33655;DHT22;19997;51.274;22.506;2023-02-15T04:04:48;5.80;99.90
33655;DHT22;19997;51.274;22.506;2023-02-15T04:07:16;5.70;99.90
33655;DHT22;19997;51.274;22.506;2023-02-15T04:09:43;5.70;99.90
33655;DHT22;19997;51.274;22.506;2023-02-15T04:12:28;5.70;99.90
33655;DHT22;19997;51.274;22.506;2023-02-15T04:14:55;5.70;99.90
33655;DHT22;19997;51.274;22.506;2023-02-15T04:17:39;5.70;99.90
33655;DHT22;19997;51.274;22.506;2023-02-15T04:20:08;5.70;99.90
33655;DHT22;19997;51.274;22.506;2023-02-15T04:22:54;5.70;99.90
33655;DHT22;19997;51.274;22.506;2023-02-15T04:25:38;5.70;99.90
33655;DHT22;19997;51.274;22.506;2023-02-15T04:28:05;5.70;99.90
33655;DHT22;19997;51.274;22.506;2023-02-15T04:30:33;5.70;99.90
33655;DHT22;19997;51.274;22.506;2023-02-15T04:33:00;5.80;99.90
33655;DHT22;19997;51.274;22.506;2023-02-15T04:35:27;5.80;99.90
33655;DHT22;19997;51.274;22.506;2023-02-15T04:37:56;5.80;99.90
33655;DHT22;19997;51.274;22.506;2023-02-15T04:40:23;5.80;99.90
33655;DHT22;19997;51.274;22.506;2023-02-15T04:42:51;5.80;99.90
33655;DHT22;19997;51.274;22.506;2023-02-15T04:45:18;5.80;99.90
33655;DHT22;19997;51.274;22.506;2023-02-15T04:47:45;5.80;99.90
33655;DHT22;19997;51.274;22.506;2023-02-15T04:50:12;5.80;99.90
33655;DHT22;19997;51.274;22.506;2023-02-15T04:52:39;5.80;99.90
33655;DHT22;19997;51.274;22.506;2023-02-15T04:55:08;5.80;99.90
33655;DHT22;19997;51.274;22.506;2023-02-15T04:57:35;5.80;99.90
33655;DHT22;19997;51.274;22.506;2023-02-15T05:00:03;5.80;99.90
33655;DHT22;19997;51.274;22.506;2023-02-15T05:02:30;5.90;99.90
33655;DHT22;19997;51.274;22.506;2023-02-15T05:04:57;5.80;99.90
33655;DHT22;19997;51.274;22.506;2023-02-15T05:07:24;5.90;99.90
33655;DHT22;19997;51.274;22.506;2023-02-15T05:09:51;5.80;99.90
33655;DHT22;19997;51.274;22.506;2023-02-15T05:12:19;5.90;99.90
33655;DHT22;19997;51.274;22.506;2023-02-15T05:14:46;5.90;99.90
33655;DHT22;19997;51.274;22.506;2023-02-15T05:17:13;5.90;99.90
33655;DHT22;19997;51.274;22.506;2023-02-15T05:19:40;5.90;99.90
33655;DHT22;19997;51.274;22.506;2023-02-15T05:22:08;5.90;99.90
33655;DHT22;19997;51.274;22.506;2023-02-15T05:24:35;5.90;99.90
33655;DHT22;19997;51.274;22.506;2023-02-15T05:27:20;5.90;99.90
33655;DHT22;19997;51.274;22.506;2023-02-15T05:30:06;5.90;99.90
33655;DHT22;19997;51.274;22.506;2023-02-15T05:32:37;5.90;99.90
33655;DHT22;19997;51.274;22.506;2023-02-15T05:35:04;5.90;99.90
33655;DHT22;19997;51.274;22.506;2023-02-15T05:37:31;5.90;99.90
33655;DHT22;19997;51.274;22.506;2023-02-15T05:39:58;5.90;99.90
33655;DHT22;19997;51.274;22.506;2023-02-15T05:42:27;5.90;99.90
33655;DHT22;19997;51.274;22.506;2023-02-15T05:44:54;6.00;99.90
33655;DHT22;19997;51.274;22.506;2023-02-15T05:47:21;6.00;99.90
33655;DHT22;19997;51.274;22.506;2023-02-15T05:49:48;6.10;99.90
33655;DHT22;19997;51.274;22.506;2023-02-15T05:52:15;6.10;99.90
33655;DHT22;19997;51.274;22.506;2023-02-15T05:54:42;6.10;99.90
33655;DHT22;19997;51.274;22.506;2023-02-15T05:57:09;6.10;99.90
33655;DHT22;19997;51.274;22.506;2023-02-15T05:59:38;6.10;99.90
33655;DHT22;19997;51.274;22.506;2023-02-15T06:02:05;6.10;99.90
33655;DHT22;19997;51.274;22.506;2023-02-15T06:04:32;6.10;99.90
33655;DHT22;19997;51.274;22.506;2023-02-15T06:06:59;6.10;99.90
33655;DHT22;19997;51.274;22.506;2023-02-15T06:09:26;6.10;99.90
33655;DHT22;19997;51.274;22.506;2023-02-15T06:11:53;6.10;99.90
33655;DHT22;19997;51.274;22.506;2023-02-15T06:14:20;6.10;99.90
33655;DHT22;19997;51.274;22.506;2023-02-15T06:16:50;6.00;99.90
33655;DHT22;19997;51.274;22.506;2023-02-15T06:19:17;6.00;99.90
33655;DHT22;19997;51.274;22.506;2023-02-15T06:21:44;6.00;99.90
33655;DHT22;19997;51.274;22.506;2023-02-15T06:24:36;6.00;99.90
33655;DHT22;19997;51.274;22.506;2023-02-15T06:27:26;6.00;99.90
33655;DHT22;19997;51.274;22.506;2023-02-15T06:29:53;6.10;99.90
33655;DHT22;19997;51.274;22.506;2023-02-15T06:32:21;6.10;99.90
33655;DHT22;19997;51.274;22.506;2023-02-15T06:34:49;6.10;99.90
33655;DHT22;19997;51.274;22.506;2023-02-15T06:37:17;6.10;99.90
33655;DHT22;19997;51.274;22.506;2023-02-15T06:39:44;6.10;99.90
33655;DHT22;19997;51.274;22.506;2023-02-15T06:42:11;6.10;99.90
33655;DHT22;19997;51.274;22.506;2023-02-15T06:44:38;6.10;99.90
33655;DHT22;19997;51.274;22.506;2023-02-15T06:47:05;6.10;99.90
33655;DHT22;19997;51.274;22.506;2023-02-15T06:49:33;6.10;99.90
33655;DHT22;19997;51.274;22.506;2023-02-15T06:52:00;6.10;99.90
33655;DHT22;19997;51.274;22.506;2023-02-15T06:54:27;6.10;99.90
33655;DHT22;19997;51.274;22.506;2023-02-15T06:56:54;6.10;99.90
33655;DHT22;19997;51.274;22.506;2023-02-15T06:59:21;6.10;99.90
33655;DHT22;19997;51.274;22.506;2023-02-15T07:01:48;6.10;99.90
33655;DHT22;19997;51.274;22.506;2023-02-15T07:04:15;6.10;99.70
33655;DHT22;19997;51.274;22.506;2023-02-15T07:06:44;6.10;99.70
33655;DHT22;19997;51.274;22.506;2023-02-15T07:09:11;6.10;99.80
33655;DHT22;19997;51.274;22.506;2023-02-15T07:11:39;6.20;99.70
33655;DHT22;19997;51.274;22.506;2023-02-15T07:14:23;6.20;99.60
33655;DHT22;19997;51.274;22.506;2023-02-15T07:16:50;6.20;98.70
33655;DHT22;19997;51.274;22.506;2023-02-15T07:19:17;6.20;98.20
33655;DHT22;19997;51.274;22.506;2023-02-15T07:21:46;6.20;98.20
33655;DHT22;19997;51.274;22.506;2023-02-15T07:24:14;6.20;98.30
33655;DHT22;19997;51.274;22.506;2023-02-15T07:26:41;6.30;98.10
33655;DHT22;19997;51.274;22.506;2023-02-15T07:29:07;6.30;98.10
33655;DHT22;19997;51.274;22.506;2023-02-15T07:31:35;6.30;97.90
33655;DHT22;19997;51.274;22.506;2023-02-15T07:34:01;6.40;97.20
33655;DHT22;19997;51.274;22.506;2023-02-15T07:36:28;6.40;96.80
33655;DHT22;19997;51.274;22.506;2023-02-15T07:38:57;6.40;96.10
33655;DHT22;19997;51.274;22.506;2023-02-15T07:41:24;6.40;95.80
33655;DHT22;19997;51.274;22.506;2023-02-15T07:43:51;6.40;95.40
33655;DHT22;19997;51.274;22.506;2023-02-15T07:46:18;6.30;95.10
33655;DHT22;19997;51.274;22.506;2023-02-15T07:48:46;6.30;95.20
33655;DHT22;19997;51.274;22.506;2023-02-15T07:51:14;6.30;95.10
33655;DHT22;19997;51.274;22.506;2023-02-15T07:53:42;6.30;94.90
33655;DHT22;19997;51.274;22.506;2023-02-15T07:56:12;6.30;94.70
33655;DHT22;19997;51.274;22.506;2023-02-15T07:58:39;6.40;94.50
33655;DHT22;19997;51.274;22.506;2023-02-15T08:01:18;6.40;94.30
33655;DHT22;19997;51.274;22.506;2023-02-15T08:03:46;6.50;94.20
33655;DHT22;19997;51.274;22.506;2023-02-15T08:06:13;6.50;93.80
33655;DHT22;19997;51.274;22.506;2023-02-15T08:08:40;6.50;93.90
33655;DHT22;19997;51.274;22.506;2023-02-15T08:11:19;6.50;94.00
33655;DHT22;19997;51.274;22.506;2023-02-15T08:13:55;6.60;93.80
33655;DHT22;19997;51.274;22.506;2023-02-15T08:16:27;6.60;93.50
33655;DHT22;19997;51.274;22.506;2023-02-15T08:18:55;6.60;93.00
33655;DHT22;19997;51.274;22.506;2023-02-15T08:21:24;6.60;92.70
33655;DHT22;19997;51.274;22.506;2023-02-15T08:23:52;6.50;92.20
33655;DHT22;19997;51.274;22.506;2023-02-15T08:26:22;6.50;92.30
33655;DHT22;19997;51.274;22.506;2023-02-15T08:28:50;6.60;92.60
33655;DHT22;19997;51.274;22.506;2023-02-15T08:31:18;6.70;92.70
33655;DHT22;19997;51.274;22.506;2023-02-15T08:33:47;6.80;92.20
33655;DHT22;19997;51.274;22.506;2023-02-15T08:36:15;6.80;91.50
33655;DHT22;19997;51.274;22.506;2023-02-15T08:38:43;6.90;91.40
33655;DHT22;19997;51.274;22.506;2023-02-15T08:41:12;6.90;91.10
33655;DHT22;19997;51.274;22.506;2023-02-15T08:43:42;6.90;90.90
33655;DHT22;19997;51.274;22.506;2023-02-15T08:46:10;6.90;91.00
33655;DHT22;19997;51.274;22.506;2023-02-15T08:48:38;6.90;90.70
33655;DHT22;19997;51.274;22.506;2023-02-15T08:51:07;6.90;90.80
33655;DHT22;19997;51.274;22.506;2023-02-15T08:53:36;6.90;90.90
33655;DHT22;19997;51.274;22.506;2023-02-15T08:56:04;6.90;90.90
33655;DHT22;19997;51.274;22.506;2023-02-15T08:58:32;6.90;90.90
33655;DHT22;19997;51.274;22.506;2023-02-15T09:01:07;6.90;90.80
33655;DHT22;19997;51.274;22.506;2023-02-15T09:03:34;6.80;90.80
33655;DHT22;19997;51.274;22.506;2023-02-15T09:06:02;6.80;90.90
33655;DHT22;19997;51.274;22.506;2023-02-15T09:08:29;6.80;91.20
33655;DHT22;19997;51.274;22.506;2023-02-15T09:11:05;6.90;91.20
33655;DHT22;19997;51.274;22.506;2023-02-15T09:13:32;7.00;91.10
33655;DHT22;19997;51.274;22.506;2023-02-15T09:16:02;7.00;90.80
33655;DHT22;19997;51.274;22.506;2023-02-15T09:18:30;7.20;90.50
33655;DHT22;19997;51.274;22.506;2023-02-15T09:21:04;7.20;90.10
33655;DHT22;19997;51.274;22.506;2023-02-15T09:23:32;7.20;90.00
33655;DHT22;19997;51.274;22.506;2023-02-15T09:26:03;7.30;89.80
33655;DHT22;19997;51.274;22.506;2023-02-15T09:28:30;7.30;89.20
33655;DHT22;19997;51.274;22.506;2023-02-15T09:31:06;7.40;88.70
33655;DHT22;19997;51.274;22.506;2023-02-15T09:33:34;7.40;88.60
33655;DHT22;19997;51.274;22.506;2023-02-15T09:36:02;7.40;87.70
33655;DHT22;19997;51.274;22.506;2023-02-15T09:38:29;7.40;87.60
33655;DHT22;19997;51.274;22.506;2023-02-15T09:41:06;7.40;88.00
33655;DHT22;19997;51.274;22.506;2023-02-15T09:43:42;7.60;88.20
33655;DHT22;19997;51.274;22.506;2023-02-15T09:46:27;7.70;86.90
33655;DHT22;19997;51.274;22.506;2023-02-15T09:48:59;7.80;87.10
33655;DHT22;19997;51.274;22.506;2023-02-15T09:51:47;7.90;87.00
33655;DHT22;19997;51.274;22.506;2023-02-15T09:54:28;8.00;84.80
33655;DHT22;19997;51.274;22.506;2023-02-15T09:57:06;7.90;85.00
33655;DHT22;19997;51.274;22.506;2023-02-15T09:59:44;7.90;85.10
33655;DHT22;19997;51.274;22.506;2023-02-15T10:02:26;8.00;85.80
33655;DHT22;19997;51.274;22.506;2023-02-15T10:05:05;8.20;86.00
33655;DHT22;19997;51.274;22.506;2023-02-15T10:07:53;8.30;85.20
33655;DHT22;19997;51.274;22.506;2023-02-15T10:10:35;8.40;85.10
33655;DHT22;19997;51.274;22.506;2023-02-15T10:13:20;8.50;83.80
33655;DHT22;19997;51.274;22.506;2023-02-15T10:16:10;8.50;82.20
33655;DHT22;19997;51.274;22.506;2023-02-15T10:18:49;8.30;81.90
33655;DHT22;19997;51.274;22.506;2023-02-15T10:21:29;8.30;82.20
33655;DHT22;19997;51.274;22.506;2023-02-15T10:24:17;8.20;81.60
33655;DHT22;19997;51.274;22.506;2023-02-15T10:26:50;8.20;82.70
33655;DHT22;19997;51.274;22.506;2023-02-15T10:29:29;8.40;82.90
33655;DHT22;19997;51.274;22.506;2023-02-15T10:32:09;8.60;82.40
33655;DHT22;19997;51.274;22.506;2023-02-15T10:34:47;8.60;82.40
33655;DHT22;19997;51.274;22.506;2023-02-15T10:37:33;8.70;82.40
33655;DHT22;19997;51.274;22.506;2023-02-15T10:40:10;8.70;81.20
33655;DHT22;19997;51.274;22.506;2023-02-15T10:42:50;8.70;81.30
33655;DHT22;19997;51.274;22.506;2023-02-15T10:48:21;8.60;80.40
33655;DHT22;19997;51.274;22.506;2023-02-15T10:50:52;8.40;80.70
33655;DHT22;19997;51.274;22.506;2023-02-15T10:53:31;8.30;80.80
33655;DHT22;19997;51.274;22.506;2023-02-15T10:56:05;8.20;81.10
33655;DHT22;19997;51.274;22.506;2023-02-15T10:58:47;8.00;81.00
33655;DHT22;19997;51.274;22.506;2023-02-15T11:01:20;8.00;82.20
33655;DHT22;19997;51.274;22.506;2023-02-15T11:04:26;8.20;82.50
33655;DHT22;19997;51.274;22.506;2023-02-15T11:07:02;8.40;82.00
33655;DHT22;19997;51.274;22.506;2023-02-15T11:09:36;8.50;80.30
33655;DHT22;19997;51.274;22.506;2023-02-15T11:12:09;8.50;80.50
33655;DHT22;19997;51.274;22.506;2023-02-15T11:14:40;8.60;80.90
33655;DHT22;19997;51.274;22.506;2023-02-15T11:17:13;8.90;81.10
33655;DHT22;19997;51.274;22.506;2023-02-15T11:19:47;9.10;79.70
33655;DHT22;19997;51.274;22.506;2023-02-15T11:22:17;9.20;79.80
33655;DHT22;19997;51.274;22.506;2023-02-15T11:24:46;9.30;79.00
33655;DHT22;19997;51.274;22.506;2023-02-15T11:27:19;9.40;78.80
33655;DHT22;19997;51.274;22.506;2023-02-15T11:29:54;9.40;79.00
33655;DHT22;19997;51.274;22.506;2023-02-15T11:32:26;9.30;77.50
33655;DHT22;19997;51.274;22.506;2023-02-15T11:34:58;9.20;77.60
33655;DHT22;19997;51.274;22.506;2023-02-15T11:37:33;9.20;78.30
33655;DHT22;19997;51.274;22.506;2023-02-15T11:40:06;9.20;78.00
33655;DHT22;19997;51.274;22.506;2023-02-15T11:42:41;9.20;77.60
33655;DHT22;19997;51.274;22.506;2023-02-15T11:45:21;9.20;77.90
33655;DHT22;19997;51.274;22.506;2023-02-15T11:48:10;9.20;77.70
33655;DHT22;19997;51.274;22.506;2023-02-15T11:50:38;9.30;77.20
33655;DHT22;19997;51.274;22.506;2023-02-15T11:53:11;9.30;76.70
33655;DHT22;19997;51.274;22.506;2023-02-15T11:55:39;9.20;76.10
33655;DHT22;19997;51.274;22.506;2023-02-15T11:58:16;8.90;76.70
33655;DHT22;19997;51.274;22.506;2023-02-15T12:00:47;8.70;76.60
33655;DHT22;19997;51.274;22.506;2023-02-15T12:03:18;8.60;77.50
33655;DHT22;19997;51.274;22.506;2023-02-15T12:05:53;8.60;78.10
33655;DHT22;19997;51.274;22.506;2023-02-15T12:08:23;8.80;78.70
33655;DHT22;19997;51.274;22.506;2023-02-15T12:10:58;8.80;77.70
33655;DHT22;19997;51.274;22.506;2023-02-15T12:13:27;8.70;77.20
33655;DHT22;19997;51.274;22.506;2023-02-15T12:15:56;8.60;77.60
33655;DHT22;19997;51.274;22.506;2023-02-15T12:18:34;8.40;78.00
33655;DHT22;19997;51.274;22.506;2023-02-15T12:21:05;8.20;78.30
33655;DHT22;19997;51.274;22.506;2023-02-15T12:23:41;7.90;78.60
33655;DHT22;19997;51.274;22.506;2023-02-15T12:26:11;7.70;79.00
33655;DHT22;19997;51.274;22.506;2023-02-15T12:28:40;7.50;79.60
33655;DHT22;19997;51.274;22.506;2023-02-15T12:31:20;7.40;80.10
33655;DHT22;19997;51.274;22.506;2023-02-15T12:33:49;7.30;80.70
33655;DHT22;19997;51.274;22.506;2023-02-15T12:36:18;7.30;81.10
33655;DHT22;19997;51.274;22.506;2023-02-15T12:41:44;7.30;81.30
33655;DHT22;19997;51.274;22.506;2023-02-15T12:44:16;7.40;81.20
33655;DHT22;19997;51.274;22.506;2023-02-15T12:46:56;7.40;81.30
33655;DHT22;19997;51.274;22.506;2023-02-15T12:49:24;7.30;81.70
33655;DHT22;19997;51.274;22.506;2023-02-15T12:51:53;7.30;81.90
33655;DHT22;19997;51.274;22.506;2023-02-15T12:54:32;7.30;82.30
33655;DHT22;19997;51.274;22.506;2023-02-15T12:57:14;7.30;82.50
33655;DHT22;19997;51.274;22.506;2023-02-15T12:59:49;7.40;82.50
33655;DHT22;19997;51.274;22.506;2023-02-15T13:02:21;7.40;82.40
33655;DHT22;19997;51.274;22.506;2023-02-15T13:04:49;7.50;82.60
33655;DHT22;19997;51.274;22.506;2023-02-15T13:07:17;7.50;82.60
33655;DHT22;19997;51.274;22.506;2023-02-15T13:09:44;7.60;82.20
33655;DHT22;19997;51.274;22.506;2023-02-15T13:12:20;7.50;81.80
33655;DHT22;19997;51.274;22.506;2023-02-15T13:14:50;7.40;81.90
33655;DHT22;19997;51.274;22.506;2023-02-15T13:17:21;7.40;82.10
33655;DHT22;19997;51.274;22.506;2023-02-15T13:19:57;7.40;82.30
33655;DHT22;19997;51.274;22.506;2023-02-15T13:22:28;7.30;82.50
33655;DHT22;19997;51.274;22.506;2023-02-15T13:25:04;7.20;82.90
33655;DHT22;19997;51.274;22.506;2023-02-15T13:27:36;7.20;83.20
33655;DHT22;19997;51.274;22.506;2023-02-15T13:30:13;7.20;83.40
33655;DHT22;19997;51.274;22.506;2023-02-15T13:32:44;7.20;83.10
33655;DHT22;19997;51.274;22.506;2023-02-15T13:35:16;7.20;83.40
33655;DHT22;19997;51.274;22.506;2023-02-15T13:38:06;7.20;83.20
33655;DHT22;19997;51.274;22.506;2023-02-15T13:40:38;7.20;83.40
33655;DHT22;19997;51.274;22.506;2023-02-15T13:43:20;7.20;82.90
33655;DHT22;19997;51.274;22.506;2023-02-15T13:46:01;7.20;82.20
33655;DHT22;19997;51.274;22.506;2023-02-15T13:48:38;7.20;82.20
33655;DHT22;19997;51.274;22.506;2023-02-15T13:51:13;7.20;82.40
33655;DHT22;19997;51.274;22.506;2023-02-15T13:54:11;7.20;82.30
33655;DHT22;19997;51.274;22.506;2023-02-15T13:56:53;7.20;82.40
33655;DHT22;19997;51.274;22.506;2023-02-15T13:59:43;7.20;82.90
33655;DHT22;19997;51.274;22.506;2023-02-15T14:05:29;7.30;82.90
33655;DHT22;19997;51.274;22.506;2023-02-15T14:08:08;7.40;83.00
33655;DHT22;19997;51.274;22.506;2023-02-15T14:10:57;7.40;82.80
33655;DHT22;19997;51.274;22.506;2023-02-15T14:13:53;7.50;82.90
33655;DHT22;19997;51.274;22.506;2023-02-15T14:16:32;7.50;82.90
33655;DHT22;19997;51.274;22.506;2023-02-15T14:19:09;7.50;83.00
33655;DHT22;19997;51.274;22.506;2023-02-15T14:21:44;7.60;83.10
33655;DHT22;19997;51.274;22.506;2023-02-15T14:24:25;7.60;83.10
33655;DHT22;19997;51.274;22.506;2023-02-15T14:27:01;7.60;83.00
33655;DHT22;19997;51.274;22.506;2023-02-15T14:29:41;7.60;82.50
33655;DHT22;19997;51.274;22.506;2023-02-15T14:32:16;7.60;82.60
33655;DHT22;19997;51.274;22.506;2023-02-15T14:34:49;7.50;82.40
33655;DHT22;19997;51.274;22.506;2023-02-15T14:40:06;7.40;82.90
33655;DHT22;19997;51.274;22.506;2023-02-15T14:43:09;7.40;82.80
33655;DHT22;19997;51.274;22.506;2023-02-15T14:45:49;7.30;83.10
33655;DHT22;19997;51.274;22.506;2023-02-15T14:48:21;7.30;83.40
33655;DHT22;19997;51.274;22.506;2023-02-15T14:50:52;7.30;83.70
33655;DHT22;19997;51.274;22.506;2023-02-15T14:53:36;7.30;83.70
33655;DHT22;19997;51.274;22.506;2023-02-15T14:56:25;7.30;83.80
33655;DHT22;19997;51.274;22.506;2023-02-15T14:59:14;7.40;83.80
33655;DHT22;19997;51.274;22.506;2023-02-15T15:02:03;7.30;83.70
33655;DHT22;19997;51.274;22.506;2023-02-15T15:04:34;7.30;83.70
33655;DHT22;19997;51.274;22.506;2023-02-15T15:07:12;7.30;83.90
33655;DHT22;19997;51.274;22.506;2023-02-15T15:09:42;7.20;83.90
33655;DHT22;19997;51.274;22.506;2023-02-15T15:12:18;7.20;84.10
33655;DHT22;19997;51.274;22.506;2023-02-15T15:15:03;7.10;84.10
33655;DHT22;19997;51.274;22.506;2023-02-15T15:17:58;7.10;84.20
33655;DHT22;19997;51.274;22.506;2023-02-15T15:20:42;7.00;84.30
33655;DHT22;19997;51.274;22.506;2023-02-15T15:26:27;6.90;84.60
33655;DHT22;19997;51.274;22.506;2023-02-15T15:29:00;6.80;84.70
33655;DHT22;19997;51.274;22.506;2023-02-15T15:31:43;6.70;84.80
33655;DHT22;19997;51.274;22.506;2023-02-15T15:37:45;6.60;85.20
33655;DHT22;19997;51.274;22.506;2023-02-15T15:40:42;6.60;85.30
33655;DHT22;19997;51.274;22.506;2023-02-15T15:47:05;6.40;85.60
33655;DHT22;19997;51.274;22.506;2023-02-15T15:49:38;6.30;85.70
33655;DHT22;19997;51.274;22.506;2023-02-15T15:52:12;6.10;85.80
33655;DHT22;19997;51.274;22.506;2023-02-15T15:54:43;6.00;86.10
33655;DHT22;19997;51.274;22.506;2023-02-15T15:57:14;5.90;86.10
33655;DHT22;19997;51.274;22.506;2023-02-15T15:59:44;5.90;86.50
33655;DHT22;19997;51.274;22.506;2023-02-15T16:02:14;5.80;86.40
33655;DHT22;19997;51.274;22.506;2023-02-15T16:04:43;5.70;86.50
33655;DHT22;19997;51.274;22.506;2023-02-15T16:07:23;5.60;86.70
33655;DHT22;19997;51.274;22.506;2023-02-15T16:09:58;5.50;87.10
33655;DHT22;19997;51.274;22.506;2023-02-15T16:12:27;5.40;87.30
33655;DHT22;19997;51.274;22.506;2023-02-15T16:14:55;5.40;87.60
33655;DHT22;19997;51.274;22.506;2023-02-15T16:17:24;5.30;87.70
33655;DHT22;19997;51.274;22.506;2023-02-15T16:19:53;5.20;87.90
33655;DHT22;19997;51.274;22.506;2023-02-15T16:22:25;5.10;88.10
33655;DHT22;19997;51.274;22.506;2023-02-15T16:25:21;5.10;88.40
33655;DHT22;19997;51.274;22.506;2023-02-15T16:27:51;5.00;88.60
33655;DHT22;19997;51.274;22.506;2023-02-15T16:30:27;4.90;88.70